Aeroporto :
LOGIN :

Iscrizione | Disclaimer

   EN    FR    IT 

 










Sommario :    VFR   VFR Marginale   IFR   IFR Intensivo   IFR Molto Intensivo
Visibilità : 
Base nubi : 
>= 8 km
>= 3000ft
5 / 8 km
1000 / 3000 ft
1500m / 5 km
500 / 1000 ft
800 / 1500m
200 / 500 ft
< 800m
< 200 ft
Simboli :   Temporali  Nebbia  Neve Forte  Precipitazioni Forti  Vento > 20 kt
SIGMETs :   Varie  Temporali  Ghiacco  Turbolenza  Onda orograficha  Ceneri Vulcaniche






- Altitudine del aeroporto : 665 ft
- Codice IATA : NOC


EIKN - Connaught / Knock- Ireland West

ULTIMO METAR :
  • 200800Z 20008KT CAVOK 04/03 Q1044 NOSIG

METARs OBSOLETI :
  • 200730Z 20004KT 160V240 CAVOK 04/03 Q1043 NOSIG
  • 200700Z 21006KT 180V240 CAVOK 04/03 Q1044 NOSIG
  • 200630Z 19005KT 150V230 CAVOK 03/03 Q1044 NOSIG
  • 200600Z 20006KT 160V230 CAVOK 03/03 Q1044 NOSIG

TAF TAF EIKN
Valido dal 20 a 06 ore il 21 a 06 ore UTC


200500Z 2006/2106 19009KT 9999 FEW012 BKN025
PROB40
TEMPO 2006/2011 3000 BR BKN007
PROB30
TEMPO 2006/2011 0400 FG BKN001
PROB30
TEMPO 2011/2024 BKN010
BECMG 2013/2015 22010KT
TEMPO 2100/2103 4000 BR BKN010
BECMG 2103/2105 SCT005 BKN008
TEMPO 2104/2106 3000 BR BKN004



MetMap, La meteo Aeronautica in un colpo d'occhio ! - Copyright ORBIFLY Dicembre 2007 - Disclaimer

ORBIFLY MET'MAP TEAM :

Programmazione e sviluppo : Alexandra Zaïnal
Concezione : Baudouin d'Aumeries
Aiuto per la programmazione : Marc-Olivier Méhu
Supporto tecnico e logistico : Manuel Goepfert
Aiuto per la traduzione : Arnaldo La Scala

Contatto : metmap@orbifly.com




FONTI E CREDITI :

   NOAA